GMML

Hassan I Airport

El Aaiún, Western Sahara
TAF GMML 200500Z 2006/2112 01008KT 8000 BKN020
Issued Valid From Valid To
Jan-20 @ 05:00 UTC
(7 hours ago)
Jan-20 @ 06:00 UTC
(6 hours ago)
Jan-21 @ 12:00 UTC
(in 24 hours)
Jan-20 @ 06:00 to Jan-21 @ 12:00
TAF GMML 200500Z 2006/2112 01008KT 8000 BKN020
Wind Visibility Clouds
10° at 8 knots 7,998 meters
  • Broken at 2,000' AGL
TAF GMML 200500Z 2006/2112 01008KT 8000 BKN020
Issued Jan-20 @ 05:00 UTC
(7 hours ago)
Valid From Jan-20 @ 06:00 UTC
(6 hours ago)
Valid To Jan-21 @ 12:00 UTC
(in 24 hours)
Jan-20 @ 06:00 - Jan-21 @ 12:00
Wind Visibility
10° at 8 knots 7,998 meters
Clouds
  • Broken at 2,000' AGL